Time;durP1;ratioP1;P1;durP2;ratioP2;P2;SDS_P1;SDS_P2;PMS_P1;PMS_P2;Temp;Humidity;BMP_temperature;BMP_pressure;BME280_temperature;BME280_humidity;BME280_pressure;Samples;Min_cycle;Max_cycle;Signal;HPM_P1;HPM_P2
2021/10/29 00:00:57;;;;;;;9.83;6.20;;;11.50;99.90;;;;;;5041121;28;20208;-50
2021/10/29 00:03:25;;;;;;;12.30;6.60;;;11.60;99.90;;;;;;5045048;28;20210;-51
2021/10/29 00:05:52;;;;;;;11.80;6.30;;;11.50;99.90;;;;;;5039311;28;20369;-50
2021/10/29 00:08:19;;;;;;;12.17;6.00;;;11.40;99.90;;;;;;5031646;28;20203;-50
2021/10/29 00:10:46;;;;;;;11.47;6.00;;;11.50;99.90;;;;;;5039047;28;20263;-51
2021/10/29 00:13:13;;;;;;;11.77;6.13;;;11.50;99.90;;;;;;5031148;28;20265;-50
2021/10/29 00:15:39;;;;;;;13.50;7.57;;;11.40;99.90;;;;;;5049078;28;20199;-51
2021/10/29 00:18:06;;;;;;;10.27;6.63;;;11.50;99.90;;;;;;5047747;28;20199;-50
2021/10/29 00:20:33;;;;;;;9.60;6.37;;;11.50;99.90;;;;;;5033954;28;20239;-50
2021/10/29 00:23:00;;;;;;;11.57;6.33;;;11.50;96.80;;;;;;5042469;28;20291;-51
2021/10/29 00:25:27;;;;;;;12.70;6.77;;;11.60;91.60;;;;;;5041419;28;20203;-51
2021/10/29 00:27:54;;;;;;;12.03;6.73;;;11.60;53.40;;;;;;5033918;28;20204;-50
2021/10/29 00:30:21;;;;;;;14.20;6.97;;;11.40;99.90;;;;;;5042162;28;20628;-50
2021/10/29 00:32:48;;;;;;;12.43;6.73;;;11.30;99.90;;;;;;5048942;28;20196;-50
2021/10/29 00:35:15;;;;;;;13.23;7.17;;;11.30;99.90;;;;;;5045012;28;20487;-50
2021/10/29 00:37:42;;;;;;;12.63;7.27;;;11.30;99.90;;;;;;5035278;28;20292;-50
2021/10/29 00:40:11;;;;;;;12.53;7.03;;;11.30;99.90;;;;;;5048162;28;20263;-50
2021/10/29 00:42:39;;;;;;;12.50;6.57;;;11.20;99.90;;;;;;5046072;28;20907;-50
2021/10/29 00:45:07;;;;;;;12.67;7.40;;;11.20;99.90;;;;;;5038408;28;20611;-50
2021/10/29 00:47:34;;;;;;;12.47;7.50;;;11.10;99.90;;;;;;5046013;28;20306;-49
2021/10/29 00:50:03;;;;;;;10.20;6.40;;;11.20;99.90;;;;;;5053950;28;20718;-50
2021/10/29 00:52:31;;;;;;;13.83;7.30;;;11.10;99.90;;;;;;5049904;28;20289;-50
2021/10/29 00:55:00;;;;;;;14.53;7.40;;;11.10;99.90;;;;;;5049728;28;20198;-50
2021/10/29 00:57:27;;;;;;;12.87;7.07;;;11.10;99.90;;;;;;5051532;28;20206;-50
2021/10/29 00:59:54;;;;;;;11.80;7.80;;;11.00;99.90;;;;;;5052624;28;20244;-51
2021/10/29 01:02:21;;;;;;;11.80;7.73;;;11.10;99.90;;;;;;5051665;28;20241;-50
2021/10/29 01:04:48;;;;;;;12.93;8.27;;;10.90;99.90;;;;;;5054172;28;20293;-50
2021/10/29 01:07:15;;;;;;;16.37;7.27;;;10.90;99.90;;;;;;5032532;28;20265;-50
2021/10/29 01:09:42;;;;;;;12.57;7.27;;;10.80;99.90;;;;;;5046520;28;20607;-50
2021/10/29 01:12:09;;;;;;;10.50;7.40;;;10.80;99.90;;;;;;5051535;28;20289;-50
2021/10/29 01:14:36;;;;;;;10.97;6.77;;;10.90;99.90;;;;;;5051066;28;20213;-50
2021/10/29 01:17:03;;;;;;;15.70;7.33;;;10.80;99.90;;;;;;5040174;28;20896;-50
2021/10/29 01:19:32;;;;;;;10.17;7.27;;;10.80;99.90;;;;;;5039738;28;20302;-50
2021/10/29 01:22:00;;;;;;;10.80;7.03;;;10.80;99.90;;;;;;5037689;28;20310;-51
2021/10/29 01:24:27;;;;;;;16.67;8.57;;;10.70;99.90;;;;;;5040279;28;20200;-50
2021/10/29 01:26:55;;;;;;;12.43;8.00;;;10.70;99.90;;;;;;5050782;28;20261;-51
2021/10/29 01:29:23;;;;;;;13.57;7.53;;;10.60;99.90;;;;;;5054386;28;20219;-50
2021/10/29 01:31:50;;;;;;;11.47;7.10;;;10.60;99.90;;;;;;5038345;28;20604;-50
2021/10/29 01:34:17;;;;;;;12.07;7.30;;;10.70;99.90;;;;;;5038962;28;20207;-50
2021/10/29 01:36:44;;;;;;;12.97;7.63;;;10.70;99.90;;;;;;5047137;28;20676;-50
2021/10/29 01:39:15;;;;;;;13.67;7.70;;;10.60;99.90;;;;;;5035425;28;20723;-50
2021/10/29 01:41:43;;;;;;;11.60;7.53;;;10.70;99.90;;;;;;5042642;28;20215;-50
2021/10/29 01:44:10;;;;;;;11.43;7.60;;;10.60;99.90;;;;;;5031564;28;20716;-50
2021/10/29 01:46:37;;;;;;;12.03;7.13;;;10.60;99.90;;;;;;5042667;28;20210;-51
2021/10/29 01:49:04;;;;;;;12.80;7.20;;;10.70;99.90;;;;;;5038076;28;20258;-51
2021/10/29 01:51:31;;;;;;;12.23;6.93;;;10.60;99.90;;;;;;5041597;28;20265;-50
2021/10/29 01:53:58;;;;;;;12.70;7.90;;;10.60;99.90;;;;;;5045314;28;20651;-50
2021/10/29 01:56:25;;;;;;;12.27;7.50;;;10.70;99.90;;;;;;5038848;28;20234;-50
2021/10/29 01:58:52;;;;;;;13.17;8.40;;;10.70;99.90;;;;;;5037990;28;20718;-49
2021/10/29 02:01:19;;;;;;;11.30;7.47;;;10.70;99.90;;;;;;5051563;28;20215;-50
2021/10/29 02:03:47;;;;;;;11.77;7.70;;;10.60;99.90;;;;;;5047472;28;20219;-49
2021/10/29 02:06:14;;;;;;;9.33;7.47;;;10.60;99.90;;;;;;5044665;28;20210;-50
2021/10/29 02:08:41;;;;;;;11.23;7.50;;;10.60;99.90;;;;;;5046952;28;20324;-49
2021/10/29 02:11:08;;;;;;;11.50;7.63;;;10.60;99.90;;;;;;5040073;28;20243;-50
2021/10/29 02:13:36;;;;;;;11.53;7.27;;;10.60;99.90;;;;;;5036253;28;20203;-50
2021/10/29 02:16:03;;;;;;;10.80;6.90;;;10.60;99.90;;;;;;5038855;28;20667;-50
2021/10/29 02:18:30;;;;;;;16.23;7.37;;;10.70;99.90;;;;;;5040890;28;20212;-50
2021/10/29 02:20:57;;;;;;;11.67;7.47;;;10.60;99.90;;;;;;5044772;28;20256;-50
2021/10/29 02:23:26;;;;;;;12.53;7.30;;;10.60;99.90;;;;;;5034833;28;20249;-51
2021/10/29 02:25:53;;;;;;;10.60;6.97;;;10.70;99.90;;;;;;5035862;28;20706;-49
2021/10/29 02:28:22;;;;;;;12.77;7.83;;;10.60;99.90;;;;;;5038200;28;20195;-49
2021/10/29 02:30:49;;;;;;;11.00;7.10;;;10.50;99.90;;;;;;5031414;28;20657;-50
2021/10/29 02:33:18;;;;;;;10.70;7.57;;;10.60;99.90;;;;;;5044369;28;20295;-50
2021/10/29 02:35:46;;;;;;;10.03;7.23;;;10.60;99.90;;;;;;5030088;28;20230;-50
2021/10/29 02:38:13;;;;;;;13.23;7.40;;;10.60;99.90;;;;;;5057007;28;20235;-50
2021/10/29 02:40:40;;;;;;;10.63;7.00;;;10.60;99.90;;;;;;5030732;28;20660;-49
2021/10/29 02:43:08;;;;;;;10.67;7.70;;;10.60;99.90;;;;;;5050607;28;20204;-50
2021/10/29 02:45:35;;;;;;;9.97;7.37;;;10.70;99.90;;;;;;5036196;28;20504;-50
2021/10/29 02:48:02;;;;;;;12.50;7.17;;;10.60;99.90;;;;;;5041894;28;20737;-50
2021/10/29 02:50:29;;;;;;;9.57;6.67;;;10.60;99.90;;;;;;5029875;28;20623;-49
2021/10/29 02:52:56;;;;;;;10.10;7.23;;;10.50;99.90;;;;;;5037475;28;20201;-50
2021/10/29 02:55:23;;;;;;;9.33;6.93;;;10.60;99.90;;;;;;5032386;28;20210;-50
2021/10/29 02:57:50;;;;;;;10.17;6.77;;;10.60;99.90;;;;;;5047672;28;20679;-49
2021/10/29 03:00:18;;;;;;;11.43;6.77;;;10.60;99.90;;;;;;5046394;28;20240;-50
2021/10/29 03:02:45;;;;;;;12.50;7.43;;;10.60;99.90;;;;;;5050700;28;20680;-50
2021/10/29 03:05:14;;;;;;;8.80;6.80;;;10.50;99.90;;;;;;5049520;28;20221;-50
2021/10/29 03:07:41;;;;;;;9.03;6.67;;;10.60;99.90;;;;;;5043156;28;20306;-49
2021/10/29 03:10:10;;;;;;;8.50;6.83;;;10.50;99.90;;;;;;5047482;28;20892;-50
2021/10/29 03:12:38;;;;;;;9.73;7.03;;;10.40;99.90;;;;;;5046910;28;20626;-50
2021/10/29 03:15:07;;;;;;;9.83;7.33;;;10.50;99.90;;;;;;5045556;28;20210;-50
2021/10/29 03:17:34;;;;;;;11.87;6.73;;;10.50;99.90;;;;;;5040339;28;20591;-50
2021/10/29 03:20:02;;;;;;;10.23;6.33;;;10.50;99.90;;;;;;5030864;28;20262;-50
2021/10/29 03:22:29;;;;;;;10.40;6.30;;;10.50;99.90;;;;;;5037363;28;20663;-49
2021/10/29 03:24:56;;;;;;;9.03;6.93;;;10.40;99.90;;;;;;5042895;28;20234;-50
2021/10/29 03:27:23;;;;;;;9.23;6.90;;;10.50;99.90;;;;;;5029070;28;20220;-50
2021/10/29 03:29:50;;;;;;;9.87;6.77;;;10.40;99.90;;;;;;5036516;28;20296;-49
2021/10/29 03:32:21;;;;;;;11.13;6.70;;;10.50;99.90;;;;;;5040840;28;20234;-49
2021/10/29 03:34:48;;;;;;;8.80;6.50;;;10.50;99.90;;;;;;5043681;28;20695;-50
2021/10/29 03:40:46;;;;;;;9.47;7.10;;;10.60;99.90;;;;;;5048749;28;20202;-50
2021/10/29 03:45:23;;;;;;;11.13;6.57;;;10.50;99.90;;;;;;5050005;28;20271;-50
2021/10/29 03:47:56;;;;;;;9.57;6.27;;;10.60;99.90;;;;;;5030675;28;20350;-50
2021/10/29 03:50:29;;;;;;;14.00;7.07;;;10.50;99.90;;;;;;5041942;28;20211;-51
2021/10/29 03:55:35;;;;;;;9.30;6.30;;;10.50;99.90;;;;;;5031650;28;20607;-50
2021/10/29 03:58:02;;;;;;;10.07;7.23;;;10.50;99.90;;;;;;5055809;28;20252;-51
2021/10/29 04:00:29;;;;;;;9.17;6.50;;;10.50;99.90;;;;;;5049208;28;20545;-50
2021/10/29 04:03:02;;;;;;;10.93;6.30;;;10.50;99.90;;;;;;5049633;28;20203;-50
2021/10/29 04:05:33;;;;;;;9.13;6.23;;;10.50;99.90;;;;;;5044222;28;20207;-50
2021/10/29 04:08:01;;;;;;;8.33;6.27;;;10.50;99.90;;;;;;5045494;28;20213;-51
2021/10/29 04:10:30;;;;;;;11.07;6.70;;;10.40;99.90;;;;;;5048541;28;20275;-50
2021/10/29 04:13:00;;;;;;;13.03;6.23;;;10.50;99.90;;;;;;5045001;28;20239;-49
2021/10/29 04:15:28;;;;;;;7.67;5.77;;;10.60;99.90;;;;;;5049535;28;20566;-50
2021/10/29 04:17:55;;;;;;;8.83;5.90;;;10.50;99.90;;;;;;5049584;28;20680;-50
2021/10/29 04:20:23;;;;;;;9.13;6.27;;;10.40;99.90;;;;;;5028987;28;20575;-50
2021/10/29 04:22:52;;;;;;;8.20;5.93;;;10.50;99.90;;;;;;5040452;28;20217;-50
2021/10/29 04:25:19;;;;;;;7.80;5.57;;;10.50;99.90;;;;;;5034254;28;20210;-50
2021/10/29 04:27:55;;;;;;;11.63;5.80;;;10.50;99.90;;;;;;5031277;28;20213;-49
2021/10/29 04:30:24;;;;;;;10.57;6.30;;;10.40;99.90;;;;;;5033295;28;20272;-50
2021/10/29 04:32:51;;;;;;;7.90;5.50;;;10.40;99.90;;;;;;5041037;28;20286;-50
2021/10/29 04:35:18;;;;;;;7.70;5.70;;;10.50;99.90;;;;;;5026886;28;20552;-49
2021/10/29 04:37:45;;;;;;;7.70;5.50;;;10.50;99.90;;;;;;5041388;28;20229;-49
2021/10/29 04:40:12;;;;;;;5.70;4.93;;;10.60;99.90;;;;;;5037822;28;20301;-50
2021/10/29 04:42:39;;;;;;;11.30;5.30;;;10.60;99.90;;;;;;5047664;28;20729;-49
2021/10/29 04:45:07;;;;;;;8.37;5.07;;;10.60;99.90;;;;;;5048796;28;20449;-49
2021/10/29 04:47:34;;;;;;;9.37;5.17;;;10.70;99.90;;;;;;5048643;28;20313;-49
2021/10/29 04:50:03;;;;;;;7.83;5.10;;;10.80;99.90;;;;;;5047975;28;20211;-49
2021/10/29 04:52:29;;;;;;;8.83;5.47;;;10.80;99.90;;;;;;5052088;28;20247;-48
2021/10/29 04:54:56;;;;;;;8.20;5.00;;;10.80;99.90;;;;;;5055712;28;20202;-49
2021/10/29 04:57:23;;;;;;;6.60;4.50;;;10.90;99.90;;;;;;5047144;28;20207;-49
2021/10/29 04:59:50;;;;;;;8.37;4.83;;;10.80;99.90;;;;;;5047055;28;20204;-49
2021/10/29 05:02:17;;;;;;;7.10;4.97;;;10.90;99.90;;;;;;5048439;28;20211;-49
2021/10/29 05:04:44;;;;;;;6.60;4.60;;;11.00;99.90;;;;;;5048413;28;20638;-49
2021/10/29 05:07:11;;;;;;;9.63;5.93;;;11.00;99.90;;;;;;5044965;28;20241;-49
2021/10/29 05:09:38;;;;;;;5.80;4.80;;;11.00;99.90;;;;;;5047032;28;20248;-49
2021/10/29 05:12:05;;;;;;;7.13;5.53;;;11.00;99.90;;;;;;5033704;28;20729;-49
2021/10/29 05:14:32;;;;;;;9.93;5.03;;;11.00;99.90;;;;;;5047719;28;20274;-49
2021/10/29 05:16:59;;;;;;;7.30;5.17;;;11.00;99.90;;;;;;5035240;28;20202;-49
2021/10/29 05:19:26;;;;;;;6.33;4.93;;;11.10;99.90;;;;;;5039824;28;20219;-50
2021/10/29 05:21:53;;;;;;;7.20;4.90;;;11.10;99.90;;;;;;5034229;28;20215;-49
2021/10/29 05:24:20;;;;;;;7.87;4.83;;;11.10;99.90;;;;;;5047759;28;20191;-50
2021/10/29 05:26:47;;;;;;;8.90;4.60;;;11.10;99.90;;;;;;5034825;28;20210;-49
2021/10/29 05:29:14;;;;;;;5.33;4.37;;;11.10;99.90;;;;;;5047733;28;20494;-49
2021/10/29 05:31:41;;;;;;;7.57;5.23;;;11.20;99.90;;;;;;5049909;28;20203;-50
2021/10/29 05:34:08;;;;;;;5.57;4.00;;;11.20;99.90;;;;;;5035287;28;20235;-49
2021/10/29 05:36:36;;;;;;;7.23;4.47;;;11.20;99.90;;;;;;5048549;28;20250;-49
2021/10/29 05:39:04;;;;;;;8.30;5.07;;;11.20;99.90;;;;;;5040542;28;20230;-50
2021/10/29 05:41:31;;;;;;;5.97;4.60;;;11.20;99.90;;;;;;5029323;28;20219;-50
2021/10/29 05:44:00;;;;;;;6.17;4.27;;;11.30;99.90;;;;;;5041613;28;20214;-49
2021/10/29 05:46:30;;;;;;;7.63;4.63;;;11.20;99.90;;;;;;5057174;28;20203;-50
2021/10/29 05:48:58;;;;;;;6.77;4.63;;;11.20;99.90;;;;;;5038087;28;20520;-50
2021/10/29 05:51:27;;;;;;;7.50;4.90;;;11.20;99.90;;;;;;5047037;28;20684;-49
2021/10/29 05:56:39;;;;;;;7.73;4.53;;;11.20;99.90;;;;;;5037474;28;20206;-48
2021/10/29 05:59:06;;;;;;;6.03;4.33;;;11.20;99.90;;;;;;5045540;28;20203;-50
2021/10/29 06:01:33;;;;;;;5.33;4.60;;;11.20;99.90;;;;;;5047085;28;20246;-48
2021/10/29 06:04:00;;;;;;;6.57;5.00;;;11.20;99.90;;;;;;5045692;28;20653;-49
2021/10/29 06:06:27;;;;;;;6.43;4.80;;;11.20;99.90;;;;;;5047293;28;20202;-49
2021/10/29 06:08:54;;;;;;;6.80;5.20;;;11.20;99.90;;;;;;5036771;28;20233;-48
2021/10/29 06:11:21;;;;;;;10.13;4.70;;;11.10;99.90;;;;;;5048781;28;20274;-49
2021/10/29 06:13:48;;;;;;;5.97;4.80;;;11.20;99.90;;;;;;5059713;28;20237;-48
2021/10/29 06:16:15;;;;;;;7.77;4.93;;;11.20;99.90;;;;;;5051310;28;20234;-49
2021/10/29 06:18:42;;;;;;;7.37;4.93;;;11.10;99.90;;;;;;5049956;28;20273;-48
2021/10/29 06:21:10;;;;;;;5.77;4.60;;;11.20;99.90;;;;;;5053699;28;20630;-50
2021/10/29 06:23:58;;;;;;;11.50;4.97;;;11.20;99.90;;;;;;5042184;28;20779;-50
2021/10/29 06:26:27;;;;;;;6.50;4.73;;;11.20;99.90;;;;;;5049360;28;20298;-50
2021/10/29 06:28:54;;;;;;;7.43;4.50;;;11.20;99.90;;;;;;5040642;28;20212;-50
2021/10/29 06:31:22;;;;;;;6.80;4.60;;;11.20;99.90;;;;;;5048879;28;20215;-50
2021/10/29 06:33:49;;;;;;;7.00;4.97;;;11.20;99.90;;;;;;5047483;28;20204;-50
2021/10/29 06:36:16;;;;;;;7.80;4.30;;;11.10;99.90;;;;;;5051461;28;20748;-51
2021/10/29 06:38:44;;;;;;;6.10;5.20;;;11.10;99.90;;;;;;5045183;28;20218;-50
2021/10/29 06:41:11;;;;;;;7.80;5.33;;;11.20;99.90;;;;;;5047594;28;20227;-50
2021/10/29 06:43:52;;;;;;;6.80;4.67;;;11.20;99.90;;;;;;5048249;28;20198;-51
2021/10/29 06:48:54;;;;;;;7.83;5.47;;;11.30;99.90;;;;;;5050610;28;20230;-49
2021/10/29 07:40:42;;;;;;;10.53;5.23;;;11.60;99.90;;;;;;5048992;28;20203;-50
2021/10/29 07:43:11;;;;;;;7.23;5.37;;;11.90;99.90;;;;;;5051948;28;20202;-49
2021/10/29 07:45:39;;;;;;;6.73;5.20;;;11.90;99.90;;;;;;5049466;28;20350;-49
2021/10/29 07:48:05;;;;;;;8.53;5.17;;;12.10;99.90;;;;;;5054547;28;20306;-49
2021/10/29 07:50:32;;;;;;;8.43;5.33;;;12.00;99.90;;;;;;5048346;28;20622;-48
2021/10/29 07:52:59;;;;;;;5.90;4.90;;;11.90;99.90;;;;;;5052843;28;20237;-51
2021/10/29 07:55:28;;;;;;;8.27;5.83;;;11.90;99.90;;;;;;5048103;28;20200;-50
2021/10/29 07:58:01;;;;;;;8.67;5.20;;;11.80;99.90;;;;;;5048590;28;20204;-48
2021/10/29 08:00:29;;;;;;;8.60;5.43;;;11.90;99.90;;;;;;5042693;28;20231;-50
2021/10/29 08:02:57;;;;;;;10.13;6.43;;;11.90;99.90;;;;;;5049516;28;20282;-51
2021/10/29 08:05:24;;;;;;;9.70;6.17;;;11.90;99.90;;;;;;5049949;28;20245;-48
2021/10/29 08:07:52;;;;;;;7.90;5.43;;;12.20;99.90;;;;;;5048876;28;20255;-51
2021/10/29 08:10:19;;;;;;;9.07;5.20;;;12.20;99.90;;;;;;5048063;28;20204;-50
2021/10/29 08:12:46;;;;;;;9.30;5.80;;;12.40;84.20;;;;;;5045659;28;20235;-50
2021/10/29 08:15:13;;;;;;;8.73;6.10;;;12.60;26.60;;;;;;5042669;28;20346;-51
2021/10/29 08:17:41;;;;;;;8.40;5.00;;;12.70;1.00;;;;;;5030126;28;20199;-51
2021/10/29 08:20:12;;;;;;;12.03;6.27;;;12.80;1.00;;;;;;5046823;28;20198;-50
2021/10/29 08:22:39;;;;;;;7.33;5.47;;;13.00;1.00;;;;;;5045646;28;20274;-50
2021/10/29 08:25:08;;;;;;;9.77;5.47;;;13.30;1.00;;;;;;5049298;28;20200;-50
2021/10/29 08:27:35;;;;;;;7.50;5.27;;;13.60;1.00;;;;;;5053282;28;20294;-50
2021/10/29 08:30:05;;;;;;;7.23;5.20;;;14.00;1.00;;;;;;5040997;28;20844;-50
2021/10/29 08:32:31;;;;;;;10.47;5.53;;;14.10;1.00;;;;;;5037275;28;20242;-51
2021/10/29 08:34:58;;;;;;;8.60;5.27;;;14.00;1.00;;;;;;5034435;28;20230;-51
2021/10/29 08:37:29;;;;;;;5.93;5.17;;;13.90;1.00;;;;;;5031961;28;20312;-51
2021/10/29 08:39:56;;;;;;;7.47;5.80;;;14.20;1.00;;;;;;5043463;28;20247;-49
2021/10/29 08:42:23;;;;;;;8.50;5.03;;;14.30;1.00;;;;;;5047542;28;20201;-51
2021/10/29 08:44:50;;;;;;;5.93;4.67;;;14.60;1.00;;;;;;5047787;28;20269;-48
2021/10/29 08:47:22;;;;;;;6.43;4.47;;;14.90;99.90;;;;;;5047978;28;20214;-49
2021/10/29 08:49:49;;;;;;;6.87;4.63;;;14.70;99.90;;;;;;5055462;28;20575;-49
2021/10/29 08:52:21;;;;;;;5.63;4.83;;;14.80;1.00;;;;;;5031822;28;20236;-49
2021/10/29 08:54:50;;;;;;;6.47;5.03;;;14.60;99.90;;;;;;5038410;28;20267;-50
2021/10/29 08:57:18;;;;;;;9.27;4.57;;;14.70;1.00;;;;;;5051744;28;20723;-49
2021/10/29 08:59:48;;;;;;;6.43;4.97;;;14.60;1.00;;;;;;5051675;28;20664;-48
2021/10/29 09:05:05;;;;;;;12.53;5.13;;;14.90;99.90;;;;;;5053754;28;20227;-50
2021/10/29 09:07:38;;;;;;;7.43;4.80;;;15.30;99.90;;;;;;5041746;28;20208;-50
2021/10/29 09:33:00;;;;;;;7.73;4.67;;;16.40;1.00;;;;;;5051642;28;20317;-50
2021/10/29 09:35:34;;;;;;;5.37;4.10;;;16.90;1.00;;;;;;5053176;28;20247;-50
2021/10/29 09:38:14;;;;;;;6.67;4.40;;;16.50;1.00;;;;;;5064758;28;20643;-50
2021/10/29 09:40:59;;;;;;;9.03;4.50;;;16.60;90.10;;;;;;5048018;28;20199;-50
2021/10/29 09:43:30;;;;;;;7.93;4.20;;;16.90;1.00;;;;;;5049836;28;20659;-49
2021/10/29 09:46:05;;;;;;;5.33;4.33;;;16.60;1.00;;;;;;5049918;28;20205;-50
2021/10/29 09:48:44;;;;;;;6.10;4.13;;;16.40;28.60;;;;;;5053303;28;20222;-49
2021/10/29 09:51:15;;;;;;;4.07;3.30;;;16.60;5.50;;;;;;5037520;28;20253;-50
2021/10/29 09:53:48;;;;;;;4.27;3.50;;;16.50;1.00;;;;;;5052641;28;20238;-50
2021/10/29 09:58:52;;;;;;;7.97;3.73;;;16.70;1.00;;;;;;5051449;28;20240;-50
2021/10/29 10:01:21;;;;;;;4.93;3.43;;;16.60;1.00;;;;;;5049994;28;20692;-50
2021/10/29 10:03:50;;;;;;;4.43;3.30;;;16.80;1.00;;;;;;5054426;28;20289;-50
2021/10/29 10:06:25;;;;;;;7.93;3.53;;;16.70;1.00;;;;;;5053397;28;20202;-50
2021/10/29 10:08:53;;;;;;;6.57;3.20;;;16.60;23.10;;;;;;5050688;28;20248;-50
2021/10/29 10:11:24;;;;;;;6.13;3.17;;;16.80;1.00;;;;;;5047628;28;20238;-50
2021/10/29 10:13:54;;;;;;;4.70;3.00;;;16.80;1.00;;;;;;5054014;28;20201;-50
2021/10/29 10:16:22;;;;;;;4.50;3.17;;;16.90;1.00;;;;;;5061329;28;20212;-50
2021/10/29 10:18:51;;;;;;;4.37;2.67;;;16.70;1.00;;;;;;5048686;28;20261;-50
2021/10/29 10:21:21;;;;;;;5.33;2.70;;;16.60;1.00;;;;;;5052780;28;20296;-50
2021/10/29 10:23:52;;;;;;;3.60;2.70;;;16.60;1.00;;;;;;5050687;28;20687;-49
2021/10/29 10:48:32;;;;;;;3.27;2.73;;;16.80;1.00;;;;;;5043945;28;20574;-50
2021/10/29 10:51:49;;;;;;;4.87;2.77;;;17.10;1.00;;;;;;5051460;28;20197;-50
2021/10/29 10:54:30;;;;;;;3.00;2.10;;;17.30;1.00;;;;;;5055725;28;20264;-49
2021/10/29 11:11:10;;;;;;;3.30;2.37;;;17.80;1.00;;;;;;5018538;28;20239;-50
2021/10/29 11:13:43;;;;;;;3.30;2.33;;;17.90;1.00;;;;;;5050520;28;20650;-50
2021/10/29 11:16:35;;;;;;;4.67;2.50;;;18.00;1.00;;;;;;5047790;28;20289;-52
2021/10/29 11:19:11;;;;;;;4.33;2.60;;;18.00;1.00;;;;;;5046079;28;20211;-50
2021/10/29 11:21:50;;;;;;;3.60;2.50;;;18.40;1.00;;;;;;5031993;28;20244;-49
2021/10/29 11:24:45;;;;;;;5.40;2.40;;;18.60;1.00;;;;;;5038064;28;20645;-50
2021/10/29 11:27:15;;;;;;;4.03;2.40;;;18.40;1.00;;;;;;5042465;28;20291;-50
2021/10/29 11:29:55;;;;;;;3.53;2.57;;;18.10;1.00;;;;;;5040919;28;20788;-52
2021/10/29 11:32:26;;;;;;;3.10;2.43;;;18.10;1.00;;;;;;5055877;28;20262;-50
2021/10/29 11:34:57;;;;;;;3.33;3.00;;;18.30;1.00;;;;;;5050097;28;20245;-51
2021/10/29 11:37:25;;;;;;;5.47;2.30;;;18.50;1.00;;;;;;5047716;28;20217;-50
2021/10/29 11:39:53;;;;;;;4.33;2.43;;;18.70;1.00;;;;;;5035397;28;20235;-51
2021/10/29 11:42:21;;;;;;;3.00;2.60;;;19.00;1.00;;;;;;5048937;28;20199;-51
2021/10/29 11:44:48;;;;;;;7.53;2.63;;;19.20;1.00;;;;;;5050139;28;20204;-52
2021/10/29 11:47:15;;;;;;;4.33;2.50;;;19.50;1.00;;;;;;5051385;28;20265;-51
2021/10/29 11:49:42;;;;;;;3.43;2.60;;;19.50;1.00;;;;;;5049482;28;20344;-52
2021/10/29 11:52:09;;;;;;;4.30;2.30;;;19.90;1.00;;;;;;5045893;28;20194;-51
2021/10/29 11:54:46;;;;;;;3.87;2.00;;;19.70;1.00;;;;;;5049677;28;20246;-51
2021/10/29 11:57:47;;;;;;;5.30;2.43;;;20.30;1.00;;;;;;5044499;28;20257;-52
2021/10/29 12:00:29;;;;;;;5.17;2.70;;;20.20;99.90;;;;;;5034174;28;20206;-52
2021/10/29 12:07:13;;;;;;;3.20;2.00;;;20.30;1.00;;;;;;5035204;28;20238;-52
2021/10/29 12:08:37;;;;;;;4.77;1.90;;;20.30;1.00;;;;;;5055663;28;20217;-51
2021/10/29 12:11:07;;;;;;;4.30;2.13;;;20.40;99.90;;;;;;5027288;28;20314;-51
2021/10/29 12:13:36;;;;;;;4.37;2.03;;;20.10;1.00;;;;;;5038484;28;20251;-51
2021/10/29 12:16:17;;;;;;;2.67;1.80;;;20.30;99.90;;;;;;5051260;28;20204;-51
2021/10/29 12:18:56;;;;;;;4.77;1.90;;;20.20;1.00;;;;;;5042473;28;20202;-51
2021/10/29 12:21:25;;;;;;;3.70;1.77;;;20.10;1.00;;;;;;5028852;28;20313;-52
2021/10/29 12:23:52;;;;;;;2.97;2.17;;;20.30;1.00;;;;;;5048443;28;20263;-52
2021/10/29 12:26:23;;;;;;;3.40;2.17;;;20.50;1.00;;;;;;5032090;28;20557;-51
2021/10/29 12:28:56;;;;;;;5.07;2.23;;;20.40;1.00;;;;;;5046409;28;20529;-51
2021/10/29 12:34:29;;;;;;;3.60;1.73;;;20.30;1.00;;;;;;5040846;28;20202;-52
2021/10/29 12:37:27;;;;;;;2.53;1.90;;;20.50;1.00;;;;;;5042689;28;20626;-51
2021/10/29 12:58:49;;;;;;;3.80;2.27;;;20.20;1.00;;;;;;5055997;28;20245;-51
2021/10/29 13:04:01;;;;;;;5.23;2.30;;;20.30;1.00;;;;;;5053412;28;20725;-49
2021/10/29 13:06:37;;;;;;;7.93;2.63;;;20.40;1.00;;;;;;5049222;28;20193;-52
2021/10/29 13:09:33;;;;;;;4.67;1.90;;;20.40;1.00;;;;;;5054611;28;20227;-51
2021/10/29 13:12:53;;;;;;;3.23;2.27;;;20.10;1.00;;;;;;5050049;28;20227;-52
2021/10/29 13:14:59;;;;;;;3.30;2.00;;;20.10;1.00;;;;;;5045094;28;20271;-51
2021/10/29 13:17:31;;;;;;;4.23;2.17;;;19.90;1.00;;;;;;5042002;28;20238;-51
2021/10/29 13:52:37;;;;;;;4.53;2.07;;;20.00;1.00;;;;;;5055188;28;20256;-51
2021/10/29 13:55:16;;;;;;;4.37;2.40;;;20.10;1.00;;;;;;5047311;28;20301;-50
2021/10/29 14:03:20;;;;;;;3.50;2.47;;;19.70;1.00;;;;;;5056019;28;20246;-51
2021/10/29 14:35:25;;;;;;;4.70;2.10;;;18.20;1.00;;;;;;5037000;28;20646;-49
2021/10/29 14:40:38;;;;;;;4.67;2.53;;;18.10;1.00;;;;;;5041174;28;20207;-52
2021/10/29 14:45:38;;;;;;;4.70;2.67;;;18.10;1.00;;;;;;5058106;28;20201;-52
2021/10/29 15:51:45;;;;;;;4.00;2.33;;;17.20;99.90;;;;;;5048611;28;20271;-49
2021/10/29 15:54:12;;;;;;;4.23;2.10;;;17.20;99.90;;;;;;5048940;28;20325;-49
2021/10/29 16:17:57;;;;;;;4.33;2.27;;;16.60;1.00;;;;;;5036782;28;20213;-49
2021/10/29 16:20:24;;;;;;;3.90;2.40;;;16.50;1.00;;;;;;5046952;28;20638;-51
2021/10/29 16:22:53;;;;;;;3.97;2.50;;;16.50;1.00;;;;;;5048494;28;20201;-49
2021/10/29 16:26:06;;;;;;;2.47;2.23;;;16.40;1.00;;;;;;5045555;28;20239;-50
2021/10/29 16:28:13;;;;;;;3.90;2.40;;;16.40;1.00;;;;;;5044319;28;20228;-50
2021/10/29 16:30:40;;;;;;;2.97;2.43;;;16.20;12.10;;;;;;5040970;28;20732;-50
2021/10/29 16:33:24;;;;;;;4.37;2.57;;;16.00;99.90;;;;;;5047777;28;20205;-49
2021/10/29 16:35:51;;;;;;;5.43;2.47;;;15.90;99.90;;;;;;5047544;28;20197;-50
2021/10/29 16:38:19;;;;;;;3.53;2.60;;;15.80;99.90;;;;;;5028694;28;20221;-49
2021/10/29 16:40:46;;;;;;;5.70;2.63;;;15.60;99.90;;;;;;5044481;28;20297;-50
2021/10/29 16:43:13;;;;;;;3.97;2.27;;;15.50;99.90;;;;;;5047677;28;20661;-49
2021/10/29 16:45:47;;;;;;;5.17;2.60;;;15.40;99.90;;;;;;5051535;28;20691;-49
2021/10/29 16:48:17;;;;;;;5.10;2.30;;;15.50;99.90;;;;;;5048586;28;20300;-50
2021/10/29 16:50:46;;;;;;;2.20;1.90;;;15.50;99.90;;;;;;5047197;28;20698;-49
2021/10/29 16:53:13;;;;;;;6.90;2.13;;;15.50;99.90;;;;;;5048546;28;20434;-49
2021/10/29 16:55:41;;;;;;;2.80;1.70;;;15.40;99.90;;;;;;5051318;28;20196;-48
2021/10/29 16:58:10;;;;;;;2.90;1.90;;;15.40;99.90;;;;;;5047428;28;20208;-49
2021/10/29 17:00:38;;;;;;;1.57;1.40;;;15.30;99.90;;;;;;5049062;28;20206;-49
2021/10/29 17:03:10;;;;;;;4.13;2.53;;;15.30;99.90;;;;;;5059499;28;20289;-49
2021/10/29 17:05:37;;;;;;;2.90;1.60;;;15.20;99.90;;;;;;5051247;28;20212;-52
2021/10/29 17:08:06;;;;;;;3.23;2.00;;;15.20;99.90;;;;;;5047878;28;20726;-49
2021/10/29 17:10:35;;;;;;;5.07;1.90;;;15.20;99.90;;;;;;5039639;28;20549;-52
2021/10/29 17:13:03;;;;;;;5.43;3.13;;;15.20;99.90;;;;;;5043741;28;20253;-51
2021/10/29 17:15:32;;;;;;;2.50;1.90;;;15.10;99.90;;;;;;5047391;28;20199;-51
2021/10/29 17:18:00;;;;;;;4.13;2.10;;;15.10;99.90;;;;;;5048507;28;20528;-48
2021/10/29 17:20:27;;;;;;;2.63;1.80;;;15.10;99.90;;;;;;5034998;28;20248;-52
2021/10/29 17:22:54;;;;;;;3.50;2.33;;;15.10;99.90;;;;;;5050938;28;20610;-50
2021/10/29 17:25:22;;;;;;;3.60;2.53;;;15.10;99.90;;;;;;5034362;28;20206;-49
2021/10/29 17:27:48;;;;;;;4.63;2.43;;;15.10;99.90;;;;;;5028451;28;20251;-49
2021/10/29 17:30:17;;;;;;;3.07;2.33;;;15.00;99.90;;;;;;5032890;28;20218;-49
2021/10/29 17:32:47;;;;;;;3.50;2.43;;;15.10;99.90;;;;;;5043368;28;20209;-49
2021/10/29 17:35:18;;;;;;;3.50;2.60;;;15.10;99.90;;;;;;5048883;28;20215;-49
2021/10/29 17:37:47;;;;;;;4.03;2.47;;;15.00;99.90;;;;;;5046417;28;20781;-49
2021/10/29 17:40:14;;;;;;;3.80;2.40;;;15.00;99.90;;;;;;5050981;28;20208;-48
2021/10/29 17:42:41;;;;;;;5.00;3.27;;;15.00;99.90;;;;;;5035915;28;20291;-52
2021/10/29 17:45:10;;;;;;;4.57;2.70;;;15.00;99.90;;;;;;5048016;28;20568;-49
2021/10/29 17:47:38;;;;;;;7.53;3.10;;;15.00;99.90;;;;;;5047605;28;20684;-52
2021/10/29 17:50:07;;;;;;;2.90;2.60;;;14.90;99.90;;;;;;5051306;28;20238;-52
2021/10/29 17:52:35;;;;;;;7.40;3.50;;;14.90;99.90;;;;;;5033656;28;20689;-50
2021/10/29 17:55:03;;;;;;;3.43;3.10;;;14.80;99.90;;;;;;5051107;28;20647;-49
2021/10/29 17:57:30;;;;;;;3.90;2.50;;;14.90;99.90;;;;;;5049454;28;20204;-51
2021/10/29 17:59:57;;;;;;;4.13;3.07;;;14.90;99.90;;;;;;5057379;28;20203;-48
2021/10/29 18:02:27;;;;;;;5.43;2.97;;;14.90;99.90;;;;;;5051309;28;20198;-52
2021/10/29 18:04:57;;;;;;;4.20;2.77;;;14.80;99.90;;;;;;5050807;28;20208;-49
2021/10/29 18:07:27;;;;;;;3.67;3.03;;;14.80;99.90;;;;;;5054002;28;20192;-50
2021/10/29 18:09:55;;;;;;;3.60;2.93;;;14.80;99.90;;;;;;5053959;28;20566;-49